BWA414 TNCM-KMIA
Flight info
| Callsign | BWA414 |
|---|---|
| Flight time | 2h 46m |
| Altitude | 34000 |
| Route | MODOR2 JUICE B520 STT RTE6 SJU DCT ACONY Y308 MADIZ VIICE2 |
| Aircraft | B38M/M-SDE1FGHILORVWXY/HB1 |
Departure
| Time | 2026-05-05 19:37 |
|---|---|
| Airport | Princess Juliana International Airport (TNCM) |
Arrival
| Time | 2026-05-05 22:24 |
|---|---|
| Airport | Miami International Airport (KMIA) |
| Time | Latitude | Longitude | Altitude | Speed | Heading |
|---|---|---|---|---|---|
| 2026-05-05 19:07 | 18.04263 | -63.11550 | 23 ft | 0 kts | 320° |
| 2026-05-05 19:15 | 18.04262 | -63.11550 | 23 ft | 0 kts | 320° |
| 2026-05-05 19:28 | 18.04258 | -63.11546 | 24 ft | 4 kts | 320° |
| 2026-05-05 19:28 | 18.04239 | -63.11527 | 24 ft | 4 kts | 308° |
| 2026-05-05 19:29 | 18.04227 | -63.11505 | 23 ft | 2 kts | 286° |
| 2026-05-05 19:29 | 18.04223 | -63.11480 | 25 ft | 4 kts | 270° |
| 2026-05-05 19:29 | 18.04226 | -63.11452 | 23 ft | 4 kts | 258° |
| 2026-05-05 19:29 | 18.04229 | -63.11434 | 27 ft | 1 kts | 261° |
| 2026-05-05 19:33 | 18.04229 | -63.11436 | 27 ft | 1 kts | 261° |
| 2026-05-05 19:33 | 18.04225 | -63.11453 | 23 ft | 4 kts | 253° |
| 2026-05-05 19:33 | 18.04204 | -63.11496 | 25 ft | 9 kts | 236° |
| 2026-05-05 19:34 | 18.04153 | -63.11564 | 23 ft | 14 kts | 231° |
| 2026-05-05 19:34 | 18.04089 | -63.11647 | 23 ft | 15 kts | 234° |
| 2026-05-05 19:34 | 18.04054 | -63.11758 | 27 ft | 17 kts | 261° |
| 2026-05-05 19:35 | 18.03987 | -63.11959 | 25 ft | 9 kts | 219° |
| 2026-05-05 19:35 | 18.03946 | -63.11939 | 24 ft | 8 kts | 102° |
| 2026-05-05 19:35 | 18.03948 | -63.11903 | 24 ft | 0 kts | 81° |
| 2026-05-05 19:36 | 18.03949 | -63.11900 | 24 ft | 0 kts | 81° |
| 2026-05-05 19:36 | 18.03956 | -63.11848 | 25 ft | 31 kts | 81° |
| 2026-05-05 19:36 | 18.04031 | -63.11320 | 24 ft | 113 kts | 81° |
| 2026-05-05 19:37 | 18.04185 | -63.10256 | 50 ft | 177 kts | 81° |
| 2026-05-05 19:37 | 18.04327 | -63.08878 | 585 ft | 198 kts | 95° |
| 2026-05-05 19:37 | 18.03760 | -63.07664 | 1978 ft | 182 kts | 133° |
| 2026-05-05 19:37 | 18.02565 | -63.06916 | 2315 ft | 231 kts | 166° |
| 2026-05-05 19:38 | 18.00962 | -63.07018 | 3473 ft | 224 kts | 194° |
| 2026-05-05 19:38 | 17.99568 | -63.07858 | 4337 ft | 247 kts | 223° |
| 2026-05-05 19:38 | 17.98785 | -63.09502 | 5193 ft | 257 kts | 259° |
| 2026-05-05 19:38 | 17.98981 | -63.11376 | 6103 ft | 265 kts | 289° |
| 2026-05-05 19:39 | 17.99556 | -63.13238 | 6958 ft | 270 kts | 284° |
| 2026-05-05 19:39 | 18.00041 | -63.15161 | 7829 ft | 273 kts | 284° |
| 2026-05-05 19:39 | 18.00534 | -63.17146 | 8477 ft | 289 kts | 283° |
| 2026-05-05 19:39 | 18.01036 | -63.19207 | 9155 ft | 297 kts | 284° |
| 2026-05-05 19:40 | 18.01560 | -63.21303 | 10160 ft | 296 kts | 284° |
| 2026-05-05 19:40 | 18.02099 | -63.23441 | 10721 ft | 312 kts | 284° |
| 2026-05-05 19:40 | 18.02656 | -63.25718 | 11087 ft | 331 kts | 284° |
| 2026-05-05 19:40 | 18.03243 | -63.28106 | 11557 ft | 343 kts | 284° |
| 2026-05-05 19:41 | 18.03850 | -63.30548 | 12269 ft | 346 kts | 284° |
| 2026-05-05 19:41 | 18.04476 | -63.33009 | 13020 ft | 350 kts | 285° |
| 2026-05-05 19:41 | 18.05109 | -63.35493 | 13729 ft | 353 kts | 285° |
| 2026-05-05 19:41 | 18.05749 | -63.37996 | 14386 ft | 356 kts | 285° |
| 2026-05-05 19:42 | 18.06392 | -63.40512 | 15040 ft | 358 kts | 285° |
| 2026-05-05 19:42 | 18.07044 | -63.43056 | 15693 ft | 360 kts | 285° |
| 2026-05-05 19:42 | 18.07696 | -63.45603 | 16319 ft | 362 kts | 286° |
| 2026-05-05 19:42 | 18.08351 | -63.48160 | 16949 ft | 364 kts | 286° |
| 2026-05-05 19:43 | 18.09013 | -63.50740 | 17531 ft | 367 kts | 286° |
| 2026-05-05 19:43 | 18.09678 | -63.53335 | 18110 ft | 370 kts | 286° |
| 2026-05-05 19:43 | 18.10341 | -63.55920 | 18622 ft | 373 kts | 286° |
| 2026-05-05 19:43 | 18.11019 | -63.58567 | 19098 ft | 375 kts | 286° |
| 2026-05-05 19:44 | 18.11702 | -63.61234 | 19585 ft | 378 kts | 285° |
| 2026-05-05 19:44 | 18.12388 | -63.63912 | 20042 ft | 381 kts | 285° |
| 2026-05-05 19:44 | 18.13051 | -63.66618 | 20500 ft | 383 kts | 281° |
| 2026-05-05 19:44 | 18.13497 | -63.69389 | 20945 ft | 386 kts | 279° |
| 2026-05-05 19:45 | 18.13953 | -63.72179 | 21389 ft | 389 kts | 279° |
| 2026-05-05 19:45 | 18.14426 | -63.74999 | 21817 ft | 392 kts | 279° |
| 2026-05-05 19:45 | 18.14907 | -63.77831 | 22234 ft | 395 kts | 279° |
| 2026-05-05 19:45 | 18.15388 | -63.80646 | 22634 ft | 398 kts | 279° |
| 2026-05-05 19:46 | 18.15879 | -63.83526 | 23016 ft | 402 kts | 279° |
| 2026-05-05 19:46 | 18.16373 | -63.86422 | 23434 ft | 404 kts | 278° |
| 2026-05-05 19:46 | 18.16872 | -63.89347 | 23780 ft | 407 kts | 279° |
| 2026-05-05 19:46 | 18.17374 | -63.92286 | 24104 ft | 409 kts | 278° |
| 2026-05-05 19:47 | 18.17876 | -63.95240 | 24448 ft | 411 kts | 278° |
| 2026-05-05 19:47 | 18.18380 | -63.98206 | 24784 ft | 413 kts | 278° |
| 2026-05-05 19:47 | 18.18887 | -64.01190 | 25116 ft | 416 kts | 278° |
| 2026-05-05 19:47 | 18.19398 | -64.04197 | 25451 ft | 417 kts | 278° |
| 2026-05-05 19:48 | 18.19909 | -64.07209 | 25786 ft | 419 kts | 279° |
| 2026-05-05 19:48 | 18.20420 | -64.10236 | 26102 ft | 421 kts | 278° |
| 2026-05-05 19:48 | 18.20928 | -64.13280 | 26425 ft | 423 kts | 278° |
| 2026-05-05 19:48 | 18.21438 | -64.16345 | 26741 ft | 426 kts | 278° |
| 2026-05-05 19:49 | 18.21951 | -64.19424 | 27064 ft | 428 kts | 278° |
| 2026-05-05 19:49 | 18.22291 | -64.21465 | 27271 ft | 429 kts | 278° |
| 2026-05-05 19:49 | 18.22974 | -64.25573 | 27687 ft | 432 kts | 278° |
| 2026-05-05 19:49 | 18.23491 | -64.28689 | 27994 ft | 434 kts | 278° |
| 2026-05-05 19:50 | 18.24011 | -64.31823 | 28300 ft | 436 kts | 278° |
| 2026-05-05 19:50 | 18.24533 | -64.34973 | 28601 ft | 438 kts | 278° |
| 2026-05-05 19:50 | 18.25056 | -64.38131 | 28894 ft | 439 kts | 278° |
| 2026-05-05 19:50 | 18.25581 | -64.41309 | 29184 ft | 441 kts | 278° |
| 2026-05-05 19:51 | 18.26107 | -64.44494 | 29473 ft | 443 kts | 278° |
| 2026-05-05 19:51 | 18.26636 | -64.47696 | 29754 ft | 445 kts | 278° |
| 2026-05-05 19:51 | 18.27166 | -64.50915 | 30034 ft | 447 kts | 278° |
| 2026-05-05 19:51 | 18.27698 | -64.54144 | 30281 ft | 449 kts | 278° |
| 2026-05-05 19:52 | 18.28231 | -64.57386 | 30514 ft | 450 kts | 278° |
| 2026-05-05 19:52 | 18.28765 | -64.60631 | 30769 ft | 451 kts | 278° |
| 2026-05-05 19:52 | 18.29299 | -64.63888 | 31008 ft | 453 kts | 278° |
| 2026-05-05 19:52 | 18.29835 | -64.67161 | 31244 ft | 454 kts | 279° |
| 2026-05-05 19:53 | 18.30371 | -64.70436 | 31477 ft | 455 kts | 279° |
| 2026-05-05 19:53 | 18.30908 | -64.73720 | 31708 ft | 456 kts | 279° |
| 2026-05-05 19:53 | 18.31447 | -64.77017 | 31952 ft | 457 kts | 279° |
| 2026-05-05 19:53 | 18.31986 | -64.80320 | 32202 ft | 458 kts | 279° |
| 2026-05-05 19:54 | 18.32517 | -64.83579 | 32500 ft | 457 kts | 279° |
| 2026-05-05 19:54 | 18.33053 | -64.86874 | 32832 ft | 456 kts | 279° |
| 2026-05-05 19:54 | 18.33587 | -64.90158 | 33179 ft | 454 kts | 279° |
| 2026-05-05 19:54 | 18.34120 | -64.93437 | 33536 ft | 453 kts | 278° |
| 2026-05-05 19:55 | 18.34649 | -64.96696 | 33897 ft | 451 kts | 278° |
| 2026-05-05 19:55 | 18.35152 | -64.99948 | 34064 ft | 449 kts | 275° |
| 2026-05-05 19:55 | 18.35062 | -65.03197 | 34054 ft | 443 kts | 259° |
| 2026-05-05 19:56 | 18.33397 | -65.09442 | 34078 ft | 444 kts | 253° |
| 2026-05-05 19:56 | 18.31568 | -65.15652 | 34069 ft | 444 kts | 253° |
| 2026-05-05 19:57 | 18.29811 | -65.21870 | 34066 ft | 443 kts | 262° |
| 2026-05-05 19:57 | 18.30262 | -65.28245 | 34080 ft | 444 kts | 279° |
| 2026-05-05 19:58 | 18.31482 | -65.34622 | 34071 ft | 444 kts | 281° |
| 2026-05-05 19:58 | 18.32773 | -65.40978 | 34076 ft | 444 kts | 281° |
| 2026-05-05 19:59 | 18.34079 | -65.47325 | 34075 ft | 444 kts | 281° |
| 2026-05-05 19:59 | 18.35383 | -65.53670 | 34077 ft | 443 kts | 281° |
| 2026-05-05 20:00 | 18.36686 | -65.60017 | 34076 ft | 443 kts | 281° |
| 2026-05-05 20:00 | 18.37986 | -65.66360 | 34073 ft | 443 kts | 281° |
| 2026-05-05 20:01 | 18.39281 | -65.72689 | 34068 ft | 442 kts | 281° |
| 2026-05-05 20:01 | 18.40575 | -65.79027 | 34066 ft | 442 kts | 281° |
| 2026-05-05 20:02 | 18.41857 | -65.85315 | 34062 ft | 442 kts | 281° |
| 2026-05-05 20:02 | 18.43144 | -65.91644 | 34069 ft | 442 kts | 281° |
| 2026-05-05 20:03 | 18.44768 | -65.97869 | 34054 ft | 443 kts | 295° |
| 2026-05-05 20:03 | 18.46503 | -66.00563 | 34057 ft | 447 kts | 310° |
| 2026-05-05 20:03 | 18.48690 | -66.02911 | 34054 ft | 450 kts | 312° |
| 2026-05-05 20:04 | 18.53157 | -66.07547 | 34040 ft | 451 kts | 313° |
| 2026-05-05 20:04 | 18.57673 | -66.12140 | 34050 ft | 451 kts | 313° |
| 2026-05-05 20:05 | 18.62198 | -66.16724 | 34039 ft | 451 kts | 313° |
| 2026-05-05 20:05 | 18.66684 | -66.21271 | 34041 ft | 451 kts | 313° |
| 2026-05-05 20:06 | 18.71203 | -66.25854 | 34029 ft | 451 kts | 313° |
| 2026-05-05 20:06 | 18.75718 | -66.30437 | 34036 ft | 450 kts | 313° |
| 2026-05-05 20:07 | 18.80233 | -66.35024 | 34042 ft | 450 kts | 313° |
| 2026-05-05 20:07 | 18.84749 | -66.39616 | 34028 ft | 450 kts | 313° |
| 2026-05-05 20:08 | 18.89263 | -66.44208 | 34031 ft | 451 kts | 313° |
| 2026-05-05 20:08 | 18.93546 | -66.49002 | 34036 ft | 445 kts | 301° |
| 2026-05-05 20:09 | 18.96894 | -66.54164 | 34035 ft | 446 kts | 302° |
| 2026-05-05 20:09 | 19.00387 | -66.59532 | 34043 ft | 446 kts | 302° |
| 2026-05-05 20:10 | 19.03894 | -66.64942 | 34048 ft | 446 kts | 302° |
| 2026-05-05 20:10 | 19.07400 | -66.70355 | 34044 ft | 446 kts | 301° |
| 2026-05-05 20:11 | 19.10905 | -66.75773 | 34045 ft | 446 kts | 301° |
| 2026-05-05 20:11 | 19.14405 | -66.81187 | 34049 ft | 446 kts | 301° |
| 2026-05-05 20:12 | 19.17909 | -66.86611 | 34046 ft | 446 kts | 301° |
| 2026-05-05 20:12 | 19.21408 | -66.92033 | 34048 ft | 446 kts | 301° |
| 2026-05-05 20:13 | 19.24905 | -66.97457 | 34050 ft | 446 kts | 301° |
| 2026-05-05 20:13 | 19.28404 | -67.02890 | 34048 ft | 447 kts | 301° |
| 2026-05-05 20:14 | 19.31881 | -67.08291 | 34054 ft | 447 kts | 301° |
| 2026-05-05 20:14 | 19.35380 | -67.13732 | 34055 ft | 447 kts | 301° |
| 2026-05-05 20:15 | 19.38881 | -67.19182 | 34054 ft | 447 kts | 301° |
| 2026-05-05 20:15 | 19.42378 | -67.24629 | 34053 ft | 447 kts | 301° |
| 2026-05-05 20:16 | 19.45281 | -67.29156 | 34054 ft | 447 kts | 301° |
| 2026-05-05 20:16 | 19.49343 | -67.35495 | 34056 ft | 447 kts | 301° |
| 2026-05-05 20:17 | 19.52838 | -67.40954 | 34054 ft | 447 kts | 301° |
| 2026-05-05 20:17 | 19.55740 | -67.45490 | 34056 ft | 447 kts | 301° |
| 2026-05-05 20:18 | 19.59229 | -67.50949 | 34055 ft | 447 kts | 301° |
| 2026-05-05 20:18 | 19.62715 | -67.56409 | 34056 ft | 447 kts | 301° |
| 2026-05-05 20:19 | 19.66202 | -67.61874 | 34059 ft | 447 kts | 301° |
| 2026-05-05 20:19 | 19.69683 | -67.67335 | 34053 ft | 446 kts | 301° |
| 2026-05-05 20:20 | 19.73159 | -67.72794 | 34055 ft | 446 kts | 301° |
| 2026-05-05 20:20 | 19.76633 | -67.78254 | 34053 ft | 446 kts | 301° |
| 2026-05-05 20:21 | 19.80101 | -67.83710 | 34053 ft | 446 kts | 301° |
| 2026-05-05 20:21 | 19.83546 | -67.89134 | 34056 ft | 446 kts | 301° |
| 2026-05-05 20:22 | 19.87008 | -67.94591 | 34055 ft | 445 kts | 301° |
| 2026-05-05 20:22 | 19.90463 | -68.00040 | 34055 ft | 445 kts | 302° |
| 2026-05-05 20:23 | 19.93918 | -68.05497 | 34052 ft | 444 kts | 302° |
| 2026-05-05 20:23 | 19.97365 | -68.10944 | 34064 ft | 445 kts | 301° |
| 2026-05-05 20:23 | 19.99091 | -68.13674 | 34317 ft | 444 kts | 301° |
| 2026-05-05 20:24 | 20.00812 | -68.16398 | 34618 ft | 443 kts | 301° |
| 2026-05-05 20:24 | 20.02530 | -68.19117 | 34918 ft | 442 kts | 301° |
| 2026-05-05 20:24 | 20.04240 | -68.21826 | 35211 ft | 441 kts | 301° |
| 2026-05-05 20:24 | 20.05950 | -68.24534 | 35498 ft | 440 kts | 301° |
| 2026-05-05 20:25 | 20.07652 | -68.27232 | 35785 ft | 438 kts | 301° |
| 2026-05-05 20:25 | 20.09349 | -68.29924 | 36063 ft | 437 kts | 300° |
| 2026-05-05 20:25 | 20.11039 | -68.32604 | 36334 ft | 436 kts | 300° |
| 2026-05-05 20:25 | 20.12728 | -68.35285 | 36599 ft | 435 kts | 300° |
| 2026-05-05 20:26 | 20.14407 | -68.37951 | 36857 ft | 433 kts | 300° |
| 2026-05-05 20:26 | 20.16082 | -68.40612 | 37053 ft | 433 kts | 300° |
| 2026-05-05 20:26 | 20.17755 | -68.43270 | 37066 ft | 432 kts | 300° |
| 2026-05-05 20:27 | 20.21086 | -68.48566 | 37056 ft | 430 kts | 300° |
| 2026-05-05 20:27 | 20.24415 | -68.53864 | 37051 ft | 430 kts | 300° |
| 2026-05-05 20:28 | 20.27417 | -68.59305 | 37052 ft | 429 kts | 296° |
| 2026-05-05 20:28 | 20.30401 | -68.64794 | 37049 ft | 428 kts | 297° |
| 2026-05-05 20:29 | 20.33402 | -68.70292 | 37048 ft | 429 kts | 297° |
| 2026-05-05 20:29 | 20.36397 | -68.75780 | 37048 ft | 429 kts | 297° |
| 2026-05-05 20:30 | 20.39394 | -68.81279 | 37048 ft | 429 kts | 297° |
| 2026-05-05 20:30 | 20.42390 | -68.86780 | 37047 ft | 429 kts | 297° |
| 2026-05-05 20:31 | 20.45382 | -68.92278 | 37045 ft | 429 kts | 297° |
| 2026-05-05 20:31 | 20.48376 | -68.97786 | 37047 ft | 429 kts | 297° |
| 2026-05-05 20:32 | 20.51365 | -69.03291 | 37045 ft | 429 kts | 297° |
| 2026-05-05 20:32 | 20.54356 | -69.08805 | 37048 ft | 429 kts | 297° |
| 2026-05-05 20:33 | 20.57346 | -69.14321 | 37046 ft | 429 kts | 297° |
| 2026-05-05 20:33 | 20.60311 | -69.19797 | 37044 ft | 429 kts | 297° |
| 2026-05-05 20:34 | 20.63298 | -69.25320 | 37047 ft | 429 kts | 297° |
| 2026-05-05 20:34 | 20.66284 | -69.30846 | 37042 ft | 429 kts | 297° |
| 2026-05-05 20:35 | 20.69267 | -69.36370 | 37042 ft | 430 kts | 297° |
| 2026-05-05 20:35 | 20.72252 | -69.41905 | 37039 ft | 430 kts | 297° |
| 2026-05-05 20:36 | 20.75233 | -69.47438 | 37042 ft | 430 kts | 297° |
| 2026-05-05 20:36 | 20.78216 | -69.52979 | 37042 ft | 430 kts | 297° |
| 2026-05-05 20:37 | 20.81195 | -69.58519 | 37042 ft | 430 kts | 297° |
| 2026-05-05 20:37 | 20.84176 | -69.64070 | 37039 ft | 430 kts | 297° |
| 2026-05-05 20:38 | 20.87140 | -69.69591 | 37040 ft | 430 kts | 297° |
| 2026-05-05 20:38 | 20.90121 | -69.75149 | 37035 ft | 430 kts | 297° |
| 2026-05-05 20:39 | 20.93089 | -69.80705 | 37039 ft | 430 kts | 297° |
| 2026-05-05 20:39 | 20.96063 | -69.86272 | 37039 ft | 430 kts | 297° |
| 2026-05-05 20:40 | 20.99033 | -69.91839 | 37040 ft | 430 kts | 297° |
| 2026-05-05 20:40 | 21.01996 | -69.97398 | 37038 ft | 430 kts | 297° |
| 2026-05-05 20:41 | 21.04936 | -70.02920 | 37039 ft | 430 kts | 297° |
| 2026-05-05 20:41 | 21.07895 | -70.08483 | 37039 ft | 429 kts | 297° |
| 2026-05-05 20:42 | 21.10848 | -70.14039 | 37035 ft | 429 kts | 297° |
| 2026-05-05 20:42 | 21.13798 | -70.19597 | 37036 ft | 429 kts | 297° |
| 2026-05-05 20:43 | 21.16747 | -70.25158 | 37035 ft | 429 kts | 297° |
| 2026-05-05 20:43 | 21.19692 | -70.30716 | 37039 ft | 429 kts | 297° |
| 2026-05-05 20:44 | 21.22636 | -70.36280 | 37034 ft | 428 kts | 297° |
| 2026-05-05 20:44 | 21.25553 | -70.41796 | 37036 ft | 428 kts | 297° |
| 2026-05-05 20:45 | 21.29953 | -70.50130 | 37035 ft | 428 kts | 297° |
| 2026-05-05 20:45 | 21.32885 | -70.55689 | 37033 ft | 428 kts | 297° |
| 2026-05-05 20:46 | 21.35811 | -70.61243 | 37039 ft | 427 kts | 297° |
| 2026-05-05 20:46 | 21.38729 | -70.66788 | 37035 ft | 427 kts | 297° |
| 2026-05-05 20:47 | 21.41647 | -70.72338 | 37034 ft | 427 kts | 297° |
| 2026-05-05 20:47 | 21.44563 | -70.77890 | 37033 ft | 427 kts | 297° |
| 2026-05-05 20:48 | 21.47475 | -70.83440 | 37034 ft | 426 kts | 297° |
| 2026-05-05 20:48 | 21.50385 | -70.88993 | 37035 ft | 426 kts | 297° |
| 2026-05-05 20:49 | 21.53291 | -70.94542 | 37038 ft | 426 kts | 297° |
| 2026-05-05 20:49 | 21.56179 | -71.00061 | 37033 ft | 426 kts | 297° |
| 2026-05-05 20:50 | 21.58979 | -71.05666 | 37033 ft | 426 kts | 296° |
| 2026-05-05 20:50 | 21.61543 | -71.10939 | 37032 ft | 425 kts | 296° |
| 2026-05-05 20:51 | 21.64289 | -71.16576 | 37032 ft | 425 kts | 296° |
| 2026-05-05 20:51 | 21.67031 | -71.22209 | 37032 ft | 425 kts | 296° |
| 2026-05-05 20:52 | 21.69769 | -71.27841 | 37032 ft | 425 kts | 296° |
| 2026-05-05 20:52 | 21.72506 | -71.33477 | 37032 ft | 425 kts | 296° |
| 2026-05-05 20:53 | 21.75239 | -71.39108 | 37034 ft | 425 kts | 296° |
| 2026-05-05 20:53 | 21.77952 | -71.44706 | 37034 ft | 424 kts | 296° |
| 2026-05-05 20:54 | 21.80697 | -71.50376 | 37032 ft | 424 kts | 296° |
| 2026-05-05 20:54 | 21.83401 | -71.55965 | 37034 ft | 424 kts | 296° |
| 2026-05-05 20:55 | 21.86126 | -71.61606 | 37032 ft | 424 kts | 296° |
| 2026-05-05 20:55 | 21.88843 | -71.67237 | 37026 ft | 424 kts | 296° |
| 2026-05-05 20:56 | 21.91563 | -71.72880 | 37028 ft | 424 kts | 296° |
| 2026-05-05 20:56 | 21.94277 | -71.78517 | 37028 ft | 424 kts | 296° |
| 2026-05-05 20:57 | 21.96990 | -71.84155 | 37025 ft | 424 kts | 296° |
| 2026-05-05 20:57 | 21.99681 | -71.89757 | 37029 ft | 424 kts | 296° |
| 2026-05-05 20:58 | 22.02388 | -71.95395 | 37025 ft | 423 kts | 296° |
| 2026-05-05 20:58 | 22.05091 | -72.01034 | 37024 ft | 423 kts | 296° |
| 2026-05-05 20:59 | 22.07792 | -72.06675 | 37023 ft | 423 kts | 296° |
| 2026-05-05 20:59 | 22.10489 | -72.12311 | 37024 ft | 423 kts | 296° |
| 2026-05-05 21:00 | 22.13185 | -72.17952 | 37025 ft | 423 kts | 296° |
| 2026-05-05 21:00 | 22.15875 | -72.23588 | 37023 ft | 422 kts | 296° |
| 2026-05-05 21:01 | 22.18549 | -72.29196 | 37027 ft | 422 kts | 296° |
| 2026-05-05 21:01 | 22.21236 | -72.34838 | 37016 ft | 422 kts | 296° |
| 2026-05-05 21:02 | 22.23917 | -72.40472 | 37028 ft | 421 kts | 297° |
| 2026-05-05 21:02 | 22.26589 | -72.46096 | 37026 ft | 421 kts | 297° |
| 2026-05-05 21:03 | 22.29260 | -72.51722 | 37027 ft | 420 kts | 297° |
| 2026-05-05 21:03 | 22.31475 | -72.56393 | 37024 ft | 420 kts | 297° |
| 2026-05-05 21:04 | 22.34138 | -72.62015 | 37025 ft | 420 kts | 297° |
| 2026-05-05 21:04 | 22.36793 | -72.67625 | 37025 ft | 419 kts | 297° |
| 2026-05-05 21:05 | 22.39445 | -72.73235 | 37035 ft | 419 kts | 297° |
| 2026-05-05 21:05 | 22.42092 | -72.78840 | 37022 ft | 419 kts | 297° |
| 2026-05-05 21:06 | 22.44739 | -72.84449 | 37033 ft | 418 kts | 297° |
| 2026-05-05 21:06 | 22.47376 | -72.90045 | 37025 ft | 418 kts | 297° |
| 2026-05-05 21:07 | 22.49987 | -72.95605 | 37029 ft | 417 kts | 297° |
| 2026-05-05 21:07 | 22.52610 | -73.01194 | 37028 ft | 416 kts | 297° |
| 2026-05-05 21:08 | 22.55228 | -73.06779 | 37026 ft | 416 kts | 297° |
| 2026-05-05 21:08 | 22.57842 | -73.12362 | 37030 ft | 415 kts | 297° |
| 2026-05-05 21:09 | 22.60448 | -73.17932 | 37030 ft | 415 kts | 297° |
| 2026-05-05 21:09 | 22.63049 | -73.23499 | 37031 ft | 414 kts | 297° |
| 2026-05-05 21:10 | 22.65627 | -73.29022 | 37030 ft | 414 kts | 297° |
| 2026-05-05 21:10 | 22.68221 | -73.34585 | 37028 ft | 413 kts | 298° |
| 2026-05-05 21:11 | 22.70807 | -73.40138 | 37031 ft | 413 kts | 298° |
| 2026-05-05 21:11 | 22.73391 | -73.45693 | 37030 ft | 412 kts | 298° |
| 2026-05-05 21:12 | 22.75968 | -73.51238 | 37032 ft | 412 kts | 298° |
| 2026-05-05 21:12 | 22.78537 | -73.56775 | 37030 ft | 411 kts | 298° |
| 2026-05-05 21:13 | 22.81104 | -73.62311 | 37028 ft | 411 kts | 298° |
| 2026-05-05 21:13 | 22.83665 | -73.67842 | 37033 ft | 410 kts | 298° |
| 2026-05-05 21:14 | 22.86220 | -73.73365 | 37032 ft | 410 kts | 298° |
| 2026-05-05 21:14 | 22.88772 | -73.78889 | 37030 ft | 409 kts | 298° |
| 2026-05-05 21:15 | 22.91303 | -73.84372 | 37026 ft | 408 kts | 298° |
| 2026-05-05 21:15 | 22.93842 | -73.89880 | 37027 ft | 408 kts | 298° |
| 2026-05-05 21:16 | 22.96375 | -73.95380 | 37025 ft | 407 kts | 298° |
| 2026-05-05 21:16 | 22.98903 | -74.00875 | 37024 ft | 407 kts | 298° |
| 2026-05-05 21:17 | 23.01427 | -74.06369 | 37034 ft | 406 kts | 298° |
| 2026-05-05 21:17 | 23.03945 | -74.11854 | 37033 ft | 406 kts | 299° |
| 2026-05-05 21:18 | 23.06455 | -74.17330 | 37033 ft | 405 kts | 299° |
| 2026-05-05 21:18 | 23.08962 | -74.22804 | 37032 ft | 404 kts | 299° |
| 2026-05-05 21:19 | 23.11447 | -74.28236 | 37032 ft | 404 kts | 299° |
| 2026-05-05 21:19 | 23.13942 | -74.33698 | 37035 ft | 403 kts | 299° |
| 2026-05-05 21:20 | 23.16431 | -74.39151 | 37028 ft | 402 kts | 299° |
| 2026-05-05 21:20 | 23.18914 | -74.44599 | 37029 ft | 401 kts | 299° |
| 2026-05-05 21:21 | 23.21392 | -74.50041 | 37027 ft | 401 kts | 299° |
| 2026-05-05 21:21 | 23.23843 | -74.55428 | 37030 ft | 400 kts | 299° |
| 2026-05-05 21:22 | 23.26303 | -74.60844 | 37030 ft | 399 kts | 299° |
| 2026-05-05 21:22 | 23.28758 | -74.66253 | 37027 ft | 398 kts | 299° |
| 2026-05-05 21:23 | 23.31205 | -74.71651 | 37028 ft | 398 kts | 300° |
| 2026-05-05 21:23 | 23.33651 | -74.77050 | 37029 ft | 397 kts | 300° |
| 2026-05-05 21:24 | 23.36089 | -74.82438 | 37030 ft | 397 kts | 300° |
| 2026-05-05 21:24 | 23.38521 | -74.87819 | 37027 ft | 396 kts | 300° |
| 2026-05-05 21:25 | 23.40493 | -74.93442 | 37027 ft | 399 kts | 293° |
| 2026-05-05 21:25 | 23.42251 | -74.99142 | 37026 ft | 399 kts | 293° |
| 2026-05-05 21:26 | 23.43998 | -75.04868 | 37029 ft | 399 kts | 293° |
| 2026-05-05 21:26 | 23.45745 | -75.10604 | 37025 ft | 398 kts | 293° |
| 2026-05-05 21:27 | 23.47490 | -75.16341 | 37026 ft | 398 kts | 293° |
| 2026-05-05 21:27 | 23.49229 | -75.22070 | 37027 ft | 398 kts | 293° |
| 2026-05-05 21:28 | 23.50965 | -75.27798 | 37024 ft | 398 kts | 293° |
| 2026-05-05 21:28 | 23.52697 | -75.33518 | 37026 ft | 397 kts | 293° |
| 2026-05-05 21:29 | 23.54417 | -75.39208 | 37026 ft | 397 kts | 293° |
| 2026-05-05 21:29 | 23.56142 | -75.44926 | 37025 ft | 397 kts | 293° |
| 2026-05-05 21:30 | 23.57868 | -75.50653 | 37020 ft | 397 kts | 293° |
| 2026-05-05 21:30 | 23.59591 | -75.56377 | 37021 ft | 397 kts | 293° |
| 2026-05-05 21:31 | 23.61303 | -75.62073 | 37021 ft | 397 kts | 293° |
| 2026-05-05 21:31 | 23.63022 | -75.67804 | 37019 ft | 397 kts | 293° |
| 2026-05-05 21:32 | 23.64740 | -75.73540 | 37020 ft | 397 kts | 293° |
| 2026-05-05 21:32 | 23.66443 | -75.79232 | 37020 ft | 397 kts | 293° |
| 2026-05-05 21:33 | 23.68156 | -75.84965 | 37019 ft | 398 kts | 293° |
| 2026-05-05 21:33 | 23.69868 | -75.90704 | 37019 ft | 398 kts | 293° |
| 2026-05-05 21:34 | 23.71577 | -75.96444 | 37020 ft | 398 kts | 293° |
| 2026-05-05 21:34 | 23.73285 | -76.02188 | 37015 ft | 398 kts | 293° |
| 2026-05-05 21:35 | 23.74993 | -76.07942 | 37016 ft | 398 kts | 293° |
| 2026-05-05 21:35 | 23.76700 | -76.13697 | 37017 ft | 398 kts | 293° |
| 2026-05-05 21:36 | 23.78405 | -76.19458 | 37021 ft | 398 kts | 293° |
| 2026-05-05 21:36 | 23.80097 | -76.25183 | 37018 ft | 399 kts | 293° |
| 2026-05-05 21:37 | 23.81798 | -76.30946 | 37020 ft | 399 kts | 292° |
| 2026-05-05 21:37 | 23.83500 | -76.36722 | 37020 ft | 399 kts | 292° |
| 2026-05-05 21:38 | 23.85200 | -76.42499 | 37013 ft | 399 kts | 292° |
| 2026-05-05 21:38 | 23.86896 | -76.48273 | 37014 ft | 399 kts | 292° |
| 2026-05-05 21:39 | 23.88581 | -76.54019 | 37016 ft | 399 kts | 292° |
| 2026-05-05 21:39 | 23.90278 | -76.59813 | 37015 ft | 399 kts | 292° |
| 2026-05-05 21:40 | 23.91968 | -76.65592 | 37015 ft | 400 kts | 292° |
| 2026-05-05 21:40 | 23.93659 | -76.71383 | 37016 ft | 400 kts | 292° |
| 2026-05-05 21:41 | 23.95350 | -76.77181 | 37013 ft | 400 kts | 292° |
| 2026-05-05 21:41 | 23.97659 | -76.82580 | 37014 ft | 395 kts | 300° |
| 2026-05-05 21:42 | 24.00071 | -76.87985 | 37012 ft | 395 kts | 299° |
| 2026-05-05 21:42 | 24.02448 | -76.93414 | 37014 ft | 395 kts | 299° |
| 2026-05-05 21:43 | 24.04812 | -76.98839 | 37014 ft | 395 kts | 299° |
| 2026-05-05 21:43 | 24.07179 | -77.04281 | 37015 ft | 395 kts | 299° |
| 2026-05-05 21:44 | 24.09540 | -77.09713 | 37011 ft | 395 kts | 299° |
| 2026-05-05 21:44 | 24.11883 | -77.15113 | 37010 ft | 395 kts | 299° |
| 2026-05-05 21:45 | 24.14243 | -77.20556 | 37008 ft | 395 kts | 299° |
| 2026-05-05 21:45 | 24.16600 | -77.25999 | 37010 ft | 395 kts | 299° |
| 2026-05-05 21:46 | 24.18949 | -77.31433 | 37009 ft | 395 kts | 299° |
| 2026-05-05 21:46 | 24.21304 | -77.36883 | 37009 ft | 395 kts | 299° |
| 2026-05-05 21:47 | 24.23653 | -77.42329 | 37011 ft | 395 kts | 299° |
| 2026-05-05 21:47 | 24.25986 | -77.47743 | 37013 ft | 395 kts | 299° |
| 2026-05-05 21:48 | 24.28335 | -77.53199 | 37006 ft | 396 kts | 299° |
| 2026-05-05 21:48 | 24.30680 | -77.58655 | 37005 ft | 396 kts | 299° |
| 2026-05-05 21:49 | 24.33026 | -77.64119 | 37005 ft | 396 kts | 299° |
| 2026-05-05 21:49 | 24.35368 | -77.69579 | 37004 ft | 396 kts | 298° |
| 2026-05-05 21:50 | 24.37709 | -77.75045 | 37006 ft | 396 kts | 298° |
| 2026-05-05 21:50 | 24.40031 | -77.80472 | 37002 ft | 396 kts | 298° |
| 2026-05-05 21:51 | 24.42383 | -77.85976 | 37012 ft | 396 kts | 298° |
| 2026-05-05 21:51 | 24.44712 | -77.91435 | 37007 ft | 396 kts | 298° |
| 2026-05-05 21:52 | 24.48194 | -77.99604 | 37002 ft | 396 kts | 298° |
| 2026-05-05 21:53 | 24.50518 | -78.05066 | 37009 ft | 388 kts | 298° |
| 2026-05-05 21:53 | 24.52525 | -78.09788 | 37010 ft | 390 kts | 298° |
| 2026-05-05 21:54 | 24.54842 | -78.15244 | 37012 ft | 396 kts | 298° |
| 2026-05-05 21:54 | 24.57162 | -78.20717 | 37004 ft | 395 kts | 298° |
| 2026-05-05 21:55 | 24.59472 | -78.26171 | 37007 ft | 395 kts | 298° |
| 2026-05-05 21:55 | 24.61789 | -78.31650 | 37001 ft | 395 kts | 298° |
| 2026-05-05 21:56 | 24.64108 | -78.37138 | 37007 ft | 395 kts | 298° |
| 2026-05-05 21:56 | 24.66029 | -78.41691 | 37009 ft | 395 kts | 298° |
| 2026-05-05 21:57 | 24.68345 | -78.47185 | 37004 ft | 395 kts | 298° |
| 2026-05-05 21:57 | 24.70649 | -78.52658 | 37003 ft | 395 kts | 298° |
| 2026-05-05 21:58 | 24.72959 | -78.58152 | 37002 ft | 395 kts | 298° |
| 2026-05-05 21:58 | 24.75265 | -78.63642 | 37007 ft | 395 kts | 298° |
| 2026-05-05 21:59 | 24.77569 | -78.69136 | 37005 ft | 395 kts | 298° |
| 2026-05-05 21:59 | 24.80179 | -78.74421 | 36706 ft | 391 kts | 306° |
| 2026-05-05 21:59 | 24.81681 | -78.76925 | 36499 ft | 392 kts | 305° |
| 2026-05-05 22:00 | 24.83186 | -78.79430 | 36274 ft | 393 kts | 306° |
| 2026-05-05 22:00 | 24.84701 | -78.81942 | 35920 ft | 391 kts | 306° |
| 2026-05-05 22:00 | 24.86208 | -78.84438 | 35133 ft | 394 kts | 305° |
| 2026-05-05 22:00 | 24.87732 | -78.86962 | 34415 ft | 396 kts | 305° |
| 2026-05-05 22:01 | 24.89255 | -78.89487 | 33845 ft | 394 kts | 305° |
| 2026-05-05 22:01 | 24.90769 | -78.91998 | 33276 ft | 391 kts | 305° |
| 2026-05-05 22:01 | 24.92269 | -78.94485 | 32732 ft | 388 kts | 304° |
| 2026-05-05 22:01 | 24.93757 | -78.96955 | 32200 ft | 386 kts | 304° |
| 2026-05-05 22:02 | 24.95236 | -78.99412 | 31668 ft | 384 kts | 304° |
| 2026-05-05 22:02 | 24.96689 | -79.01824 | 31147 ft | 382 kts | 304° |
| 2026-05-05 22:02 | 24.98153 | -79.04259 | 30627 ft | 380 kts | 304° |
| 2026-05-05 22:02 | 24.99613 | -79.06686 | 30103 ft | 379 kts | 304° |
| 2026-05-05 22:03 | 25.01069 | -79.09107 | 29503 ft | 378 kts | 303° |
| 2026-05-05 22:03 | 25.02519 | -79.11521 | 28946 ft | 377 kts | 303° |
| 2026-05-05 22:03 | 25.03966 | -79.13932 | 28366 ft | 376 kts | 303° |
| 2026-05-05 22:03 | 25.05399 | -79.16320 | 27905 ft | 372 kts | 303° |
| 2026-05-05 22:04 | 25.06823 | -79.18694 | 27416 ft | 369 kts | 303° |
| 2026-05-05 22:04 | 25.08236 | -79.21050 | 26940 ft | 367 kts | 302° |
| 2026-05-05 22:04 | 25.09641 | -79.23395 | 26463 ft | 365 kts | 303° |
| 2026-05-05 22:04 | 25.11040 | -79.25731 | 25994 ft | 364 kts | 303° |
| 2026-05-05 22:05 | 25.12415 | -79.28028 | 25534 ft | 362 kts | 303° |
| 2026-05-05 22:05 | 25.13818 | -79.30372 | 25063 ft | 361 kts | 302° |
| 2026-05-05 22:05 | 25.15196 | -79.32678 | 24389 ft | 366 kts | 302° |
| 2026-05-05 22:05 | 25.16612 | -79.35047 | 23739 ft | 372 kts | 302° |
| 2026-05-05 22:06 | 25.18043 | -79.37442 | 22958 ft | 377 kts | 302° |
| 2026-05-05 22:06 | 25.19473 | -79.39835 | 22243 ft | 370 kts | 302° |
| 2026-05-05 22:06 | 25.20876 | -79.42185 | 21669 ft | 359 kts | 302° |
| 2026-05-05 22:06 | 25.22225 | -79.44448 | 21238 ft | 347 kts | 302° |
| 2026-05-05 22:07 | 25.23542 | -79.46657 | 20831 ft | 343 kts | 302° |
| 2026-05-05 22:07 | 25.24856 | -79.48861 | 20408 ft | 346 kts | 302° |
| 2026-05-05 22:07 | 25.26191 | -79.51103 | 19970 ft | 350 kts | 302° |
| 2026-05-05 22:07 | 25.27528 | -79.53347 | 19545 ft | 351 kts | 303° |
| 2026-05-05 22:08 | 25.28870 | -79.55602 | 19125 ft | 350 kts | 303° |
| 2026-05-05 22:08 | 25.30207 | -79.57851 | 18716 ft | 349 kts | 303° |
| 2026-05-05 22:08 | 25.31533 | -79.60081 | 18302 ft | 347 kts | 303° |
| 2026-05-05 22:08 | 25.32858 | -79.62311 | 17833 ft | 346 kts | 303° |
| 2026-05-05 22:09 | 25.34158 | -79.64500 | 17415 ft | 344 kts | 302° |
| 2026-05-05 22:09 | 25.35463 | -79.66698 | 16992 ft | 341 kts | 302° |
| 2026-05-05 22:09 | 25.36762 | -79.68886 | 16587 ft | 339 kts | 302° |
| 2026-05-05 22:09 | 25.38051 | -79.71059 | 16200 ft | 336 kts | 302° |
| 2026-05-05 22:10 | 25.39363 | -79.73173 | 15818 ft | 334 kts | 304° |
| 2026-05-05 22:10 | 25.40706 | -79.75256 | 15495 ft | 332 kts | 304° |
| 2026-05-05 22:10 | 25.42047 | -79.77346 | 15161 ft | 333 kts | 304° |
| 2026-05-05 22:10 | 25.43387 | -79.79440 | 14822 ft | 332 kts | 304° |
| 2026-05-05 22:11 | 25.44716 | -79.81520 | 14480 ft | 331 kts | 303° |
| 2026-05-05 22:11 | 25.46042 | -79.83596 | 14144 ft | 329 kts | 303° |
| 2026-05-05 22:11 | 25.47359 | -79.85661 | 13798 ft | 328 kts | 303° |
| 2026-05-05 22:11 | 25.48678 | -79.87720 | 13389 ft | 327 kts | 304° |
| 2026-05-05 22:12 | 25.49983 | -79.89757 | 13024 ft | 323 kts | 303° |
| 2026-05-05 22:12 | 25.51284 | -79.91788 | 12700 ft | 321 kts | 303° |
| 2026-05-05 22:12 | 25.52566 | -79.93791 | 12370 ft | 317 kts | 303° |
| 2026-05-05 22:12 | 25.53832 | -79.95770 | 12033 ft | 313 kts | 303° |
| 2026-05-05 22:13 | 25.55081 | -79.97722 | 11721 ft | 309 kts | 303° |
| 2026-05-05 22:13 | 25.56317 | -79.99656 | 11381 ft | 306 kts | 303° |
| 2026-05-05 22:13 | 25.57542 | -80.01573 | 11083 ft | 303 kts | 303° |
| 2026-05-05 22:13 | 25.58754 | -80.03471 | 10760 ft | 300 kts | 303° |
| 2026-05-05 22:14 | 25.59957 | -80.05355 | 10416 ft | 299 kts | 303° |
| 2026-05-05 22:14 | 25.61150 | -80.07224 | 10118 ft | 296 kts | 303° |
| 2026-05-05 22:14 | 25.62314 | -80.09048 | 9812 ft | 293 kts | 303° |
| 2026-05-05 22:14 | 25.63487 | -80.10887 | 9478 ft | 290 kts | 303° |
| 2026-05-05 22:15 | 25.64647 | -80.12706 | 9170 ft | 287 kts | 303° |
| 2026-05-05 22:15 | 25.65720 | -80.14547 | 8908 ft | 281 kts | 295° |
| 2026-05-05 22:15 | 25.66527 | -80.16493 | 8631 ft | 277 kts | 294° |
| 2026-05-05 22:15 | 25.67339 | -80.18412 | 8382 ft | 272 kts | 294° |
| 2026-05-05 22:16 | 25.68148 | -80.20290 | 8139 ft | 268 kts | 294° |
| 2026-05-05 22:16 | 25.68937 | -80.22139 | 7941 ft | 262 kts | 293° |
| 2026-05-05 22:16 | 25.69701 | -80.23962 | 7662 ft | 260 kts | 294° |
| 2026-05-05 22:16 | 25.70462 | -80.25766 | 7409 ft | 257 kts | 294° |
| 2026-05-05 22:17 | 25.71090 | -80.27621 | 7134 ft | 258 kts | 277° |
| 2026-05-05 22:17 | 25.71101 | -80.29603 | 6876 ft | 255 kts | 268° |
| 2026-05-05 22:17 | 25.71034 | -80.31554 | 6634 ft | 252 kts | 268° |
| 2026-05-05 22:17 | 25.70960 | -80.33490 | 6391 ft | 249 kts | 268° |
| 2026-05-05 22:18 | 25.70881 | -80.35368 | 6147 ft | 245 kts | 268° |
| 2026-05-05 22:18 | 25.70798 | -80.37242 | 5911 ft | 242 kts | 267° |
| 2026-05-05 22:18 | 25.70712 | -80.39089 | 5650 ft | 239 kts | 268° |
| 2026-05-05 22:18 | 25.70626 | -80.40916 | 5411 ft | 236 kts | 268° |
| 2026-05-05 22:19 | 25.70540 | -80.42723 | 5174 ft | 232 kts | 268° |
| 2026-05-05 22:19 | 25.70565 | -80.44496 | 4891 ft | 230 kts | 283° |
| 2026-05-05 22:19 | 25.71299 | -80.46075 | 4431 ft | 236 kts | 313° |
| 2026-05-05 22:19 | 25.72690 | -80.47043 | 3978 ft | 241 kts | 343° |
| 2026-05-05 22:20 | 25.74367 | -80.47160 | 3538 ft | 244 kts | 6° |
| 2026-05-05 22:20 | 25.76053 | -80.47102 | 3123 ft | 241 kts | 2° |
| 2026-05-05 22:20 | 25.77636 | -80.46636 | 2736 ft | 235 kts | 31° |
| 2026-05-05 22:20 | 25.78793 | -80.45418 | 2413 ft | 228 kts | 59° |
| 2026-05-05 22:21 | 25.79235 | -80.43784 | 2158 ft | 219 kts | 89° |
| 2026-05-05 22:21 | 25.78946 | -80.42195 | 1931 ft | 201 kts | 107° |
| 2026-05-05 22:21 | 25.78558 | -80.40778 | 1764 ft | 184 kts | 100° |
| 2026-05-05 22:21 | 25.78361 | -80.39406 | 1516 ft | 176 kts | 94° |
| 2026-05-05 22:22 | 25.78328 | -80.38097 | 1269 ft | 169 kts | 87° |
| 2026-05-05 22:22 | 25.78385 | -80.36844 | 1045 ft | 153 kts | 87° |
| 2026-05-05 22:22 | 25.78440 | -80.35758 | 938 ft | 129 kts | 87° |
| 2026-05-05 22:22 | 25.78474 | -80.34751 | 659 ft | 135 kts | 87° |
| 2026-05-05 22:23 | 25.78515 | -80.33689 | 514 ft | 137 kts | 89° |
| 2026-05-05 22:23 | 25.78570 | -80.32640 | 314 ft | 136 kts | 88° |
| 2026-05-05 22:23 | 25.78607 | -80.31607 | 122 ft | 133 kts | 89° |
| 2026-05-05 22:23 | 25.78646 | -80.30600 | 22 ft | 122 kts | 88° |
| 2026-05-05 22:24 | 25.78680 | -80.29804 | 20 ft | 76 kts | 87° |
| 2026-05-05 22:24 | 25.78696 | -80.29398 | 19 ft | 42 kts | 85° |
| 2026-05-05 22:24 | 25.78743 | -80.29220 | 22 ft | 21 kts | 59° |
| 2026-05-05 22:24 | 25.78812 | -80.29128 | 19 ft | 17 kts | 66° |
| 2026-05-05 22:25 | 25.78827 | -80.29000 | 19 ft | 17 kts | 78° |
| 2026-05-05 22:25 | 25.78860 | -80.28862 | 18 ft | 20 kts | 79° |
| 2026-05-05 22:25 | 25.78871 | -80.28701 | 18 ft | 22 kts | 88° |
| 2026-05-05 22:25 | 25.78876 | -80.28533 | 21 ft | 22 kts | 86° |
| 2026-05-05 22:26 | 25.78886 | -80.28364 | 23 ft | 23 kts | 86° |
| 2026-05-05 22:26 | 25.78895 | -80.28181 | 23 ft | 24 kts | 86° |
| 2026-05-05 22:26 | 25.78912 | -80.28026 | 28 ft | 19 kts | 69° |
| 2026-05-05 22:26 | 25.78939 | -80.27883 | 24 ft | 19 kts | 80° |
| 2026-05-05 22:27 | 25.79042 | -80.27801 | 24 ft | 15 kts | 21° |
| 2026-05-05 22:27 | 25.79086 | -80.27756 | 27 ft | 7 kts | 78° |
| 2026-05-05 22:27 | 25.79091 | -80.27707 | 24 ft | 4 kts | 82° |
| 2026-05-05 22:27 | 25.79092 | -80.27700 | 24 ft | 0 kts | 81° |